Time;durP1;ratioP1;P1;durP2;ratioP2;P2;SDS_P1;SDS_P2;PMS_P1;PMS_P2;Temp;Humidity;BMP_temperature;BMP_pressure;BME280_temperature;BME280_humidity;BME280_pressure;Samples;Min_cycle;Max_cycle;Signal;HPM_P1;HPM_P2
2022/02/07 00:00:04;;;;;;;;;;;;;;;20.81;24.97;94262.63;10434512;28;1906;-44
2022/02/07 00:05:04;;;;;;;;;;;;;;;20.89;25.32;94369.88;10440314;28;1830;-43
2022/02/07 00:10:06;;;;;;;;;;;;;;;20.93;25.50;94368.16;10438786;28;1815;-43
2022/02/07 00:15:08;;;;;;;;;;;;;;;20.92;25.44;94361.34;10440362;28;1750;-43
2022/02/07 00:20:13;;;;;;;;;;;;;;;20.92;25.32;94321.03;10454820;28;1963;-46
2022/02/07 00:25:14;;;;;;;;;;;;;;;20.91;25.45;94322.91;10455832;28;1907;-47
2022/02/07 00:30:15;;;;;;;;;;;;;;;20.93;25.37;94360.25;10441903;28;1837;-43
2022/02/07 00:35:18;;;;;;;;;;;;;;;20.91;25.11;94365.06;10438121;28;1798;-43
2022/02/07 00:50:33;;;;;;;;;;;;;;;20.92;25.16;94323.66;10435414;28;1796;-49
2022/02/07 00:55:33;;;;;;;;;;;;;;;20.91;25.39;94344.00;10434925;28;1839;-46
2022/02/07 01:00:34;;;;;;;;;;;;;;;20.93;25.39;94362.91;10440924;28;1922;-43
2022/02/07 01:05:34;;;;;;;;;;;;;;;20.91;25.13;94401.94;10434155;28;1850;-44
2022/02/07 01:10:49;;;;;;;;;;;;;;;20.95;25.43;94426.59;10431990;28;1918;-42
2022/02/07 01:16:12;;;;;;;;;;;;;;;20.93;25.41;94431.38;10449148;28;1861;-44
2022/02/07 01:57:46;;;;;;;;;;;;;;;20.95;25.25;94587.28;10433844;28;2093;-43
2022/02/07 02:02:47;;;;;;;;;;;;;;;20.96;25.11;94583.53;10439337;28;2048;-45
2022/02/07 02:07:49;;;;;;;;;;;;;;;20.97;24.89;94611.47;10449821;28;2007;-48
2022/02/07 02:13:28;;;;;;;;;;;;;;;20.96;24.92;94651.25;10450735;28;1824;-44
2022/02/07 02:45:33;;;;;;;;;;;;;;;20.96;24.83;94725.03;10440713;28;1899;-45
2022/02/07 02:55:31;;;;;;;;;;;;;;;20.96;24.78;94719.75;10458323;28;1759;-42
2022/02/07 03:00:31;;;;;;;;;;;;;;;20.95;24.64;94747.97;10455033;28;1973;-43
2022/02/07 03:21:04;;;;;;;;;;;;;;;20.95;24.47;94824.38;10347696;28;1910;-53
2022/02/07 03:26:05;;;;;;;;;;;;;;;20.96;24.71;94810.09;10354815;28;1955;-54
2022/02/07 03:31:07;;;;;;;;;;;;;;;20.97;24.69;94816.16;10348414;28;1864;-55
2022/02/07 03:36:08;;;;;;;;;;;;;;;20.96;24.59;94865.44;10348559;28;1942;-57
2022/02/07 03:41:09;;;;;;;;;;;;;;;20.97;24.68;94892.56;10364630;28;1954;-55
2022/02/07 03:46:10;;;;;;;;;;;;;;;20.96;24.55;94923.41;10352680;28;1792;-53
2022/02/07 03:51:10;;;;;;;;;;;;;;;20.96;24.81;94918.13;10329931;28;1906;-56
2022/02/07 03:56:10;;;;;;;;;;;;;;;20.96;24.74;94936.56;10362993;28;2058;-52
2022/02/07 04:01:11;;;;;;;;;;;;;;;20.96;24.50;94952.38;10365465;28;1910;-56
2022/02/07 04:06:16;;;;;;;;;;;;;;;20.95;24.42;94974.53;10362568;28;1770;-56
2022/02/07 04:16:22;;;;;;;;;;;;;;;20.97;24.47;95019.03;10336411;28;1913;-54
2022/02/07 04:21:22;;;;;;;;;;;;;;;20.96;24.74;95030.63;10333293;28;1971;-53
2022/02/07 04:26:23;;;;;;;;;;;;;;;20.96;24.56;95055.13;10336102;28;1802;-54
2022/02/07 04:31:23;;;;;;;;;;;;;;;20.96;24.42;95078.06;10321680;28;1861;-57
2022/02/07 04:36:24;;;;;;;;;;;;;;;20.94;24.58;95080.97;10323634;28;1927;-55
2022/02/07 04:41:24;;;;;;;;;;;;;;;20.95;24.55;95087.84;10333984;28;1907;-56
2022/02/07 04:51:54;;;;;;;;;;;;;;;20.95;24.51;95081.78;10333102;28;1718;-55
2022/02/07 05:03:04;;;;;;;;;;;;;;;20.95;24.61;95106.28;10333250;28;1944;-56
2022/02/07 05:18:11;;;;;;;;;;;;;;;20.96;24.34;95146.56;10336631;28;1987;-55
2022/02/07 05:23:12;;;;;;;;;;;;;;;20.96;24.20;95165.00;10330737;28;1796;-55
2022/02/07 05:28:12;;;;;;;;;;;;;;;20.96;24.66;95178.97;10333635;28;1864;-57
2022/02/07 05:33:13;;;;;;;;;;;;;;;20.95;24.49;95197.69;10333734;28;1809;-57
2022/02/07 05:38:14;;;;;;;;;;;;;;;20.94;24.62;95228.53;10332365;28;1910;-57
2022/02/07 05:43:16;;;;;;;;;;;;;;;20.95;24.22;95243.28;10330425;28;1798;-56
2022/02/07 05:48:16;;;;;;;;;;;;;;;20.94;24.42;95257.50;10338881;28;1792;-57
2022/02/07 05:53:17;;;;;;;;;;;;;;;20.96;24.32;95273.03;10348669;28;1887;-57
2022/02/07 05:58:18;;;;;;;;;;;;;;;20.95;24.64;95277.53;10344273;28;1990;-58
2022/02/07 06:03:18;;;;;;;;;;;;;;;20.95;24.50;95301.25;10346249;28;2209;-57
2022/02/07 06:08:18;;;;;;;;;;;;;;;20.97;24.53;95312.28;10346387;28;1926;-57
2022/02/07 06:13:19;;;;;;;;;;;;;;;20.96;24.40;95344.16;10339488;28;1860;-56
2022/02/07 06:18:20;;;;;;;;;;;;;;;20.95;24.59;95375.03;10344653;28;1914;-56
2022/02/07 06:23:20;;;;;;;;;;;;;;;20.97;24.42;95403.72;10343924;28;1923;-57
2022/02/07 06:28:21;;;;;;;;;;;;;;;20.97;24.48;95407.13;10343789;28;1915;-55
2022/02/07 06:33:22;;;;;;;;;;;;;;;20.97;24.65;95430.84;10342745;28;1871;-56
2022/02/07 06:38:22;;;;;;;;;;;;;;;20.98;24.75;95448.22;10343600;28;1999;-56
2022/02/07 06:43:22;;;;;;;;;;;;;;;20.98;24.70;95466.66;10344865;28;1855;-57
2022/02/07 06:48:23;;;;;;;;;;;;;;;20.96;24.53;95484.59;10344970;28;1782;-57
2022/02/07 06:53:23;;;;;;;;;;;;;;;20.96;24.63;95500.41;10341718;28;1809;-57
2022/02/07 06:58:23;;;;;;;;;;;;;;;20.96;24.40;95499.63;10339467;28;1973;-57
2022/02/07 07:03:24;;;;;;;;;;;;;;;20.95;24.62;95512.03;10337481;28;1996;-57
2022/02/07 07:08:25;;;;;;;;;;;;;;;20.96;24.36;95526.75;10348825;28;1869;-55
2022/02/07 07:13:37;;;;;;;;;;;;;;;20.97;24.68;95538.09;10349902;28;2183;-56
2022/02/07 07:18:37;;;;;;;;;;;;;;;20.98;24.61;95539.66;10321308;28;1906;-57
2022/02/07 07:23:39;;;;;;;;;;;;;;;20.98;24.58;95560.72;10361320;28;1847;-55
2022/02/07 07:28:41;;;;;;;;;;;;;;;20.98;24.45;95556.25;10336661;28;1806;-55
2022/02/07 07:33:43;;;;;;;;;;;;;;;20.99;24.82;95568.38;10360403;28;1844;-56
2022/02/07 07:38:43;;;;;;;;;;;;;;;21.00;24.56;95569.94;10336897;28;1899;-56
2022/02/07 07:43:48;;;;;;;;;;;;;;;21.01;24.31;95586.53;10342182;28;1830;-56
2022/02/07 07:48:56;;;;;;;;;;;;;;;21.01;24.71;95592.59;10339833;28;1795;-56
2022/02/07 07:54:21;;;;;;;;;;;;;;;21.03;24.52;95603.69;10359066;28;1791;-58
2022/02/07 08:04:43;;;;;;;;;;;;;;;21.04;24.70;95628.19;10357857;28;1802;-57
2022/02/07 08:14:50;;;;;;;;;;;;;;;21.02;24.65;95636.34;10326355;28;1873;-58
2022/02/07 08:19:51;;;;;;;;;;;;;;;21.04;24.58;95660.56;10329943;28;1915;-55
2022/02/07 08:24:55;;;;;;;;;;;;;;;21.06;24.45;95668.22;10332961;28;1871;-57
2022/02/07 08:29:56;;;;;;;;;;;;;;;21.06;24.59;95687.44;10328296;28;1848;-57
2022/02/07 08:35:00;;;;;;;;;;;;;;;21.05;24.59;95693.78;10329842;28;1792;-57
2022/02/07 08:40:01;;;;;;;;;;;;;;;21.05;24.50;95708.81;10322247;28;1997;-56
2022/02/07 08:45:02;;;;;;;;;;;;;;;21.05;24.43;95714.06;10324910;28;1814;-56
2022/02/07 08:50:03;;;;;;;;;;;;;;;21.05;24.38;95746.50;10326761;28;1804;-56
2022/02/07 08:55:05;;;;;;;;;;;;;;;21.06;24.69;95758.59;10321606;28;1895;-55
2022/02/07 09:10:22;;;;;;;;;;;;;;;21.08;24.46;95773.38;10348765;28;1842;-56
2022/02/07 09:15:32;;;;;;;;;;;;;;;21.06;24.50;95784.19;10356747;28;1842;-57
2022/02/07 09:20:33;;;;;;;;;;;;;;;21.07;24.36;95796.28;10352056;28;1914;-57
2022/02/07 09:25:33;;;;;;;;;;;;;;;21.10;24.44;95813.41;10356234;28;2433;-56
2022/02/07 09:30:34;;;;;;;;;;;;;;;21.12;24.16;95804.16;10369642;28;1869;-56
2022/02/07 09:35:35;;;;;;;;;;;;;;;21.15;24.56;95823.91;10355819;28;1780;-54
2022/02/07 09:40:36;;;;;;;;;;;;;;;21.16;24.50;95836.03;10346402;28;1922;-57
2022/02/07 09:45:40;;;;;;;;;;;;;;;21.17;24.68;95858.69;10352598;28;1849;-55
2022/02/07 09:50:41;;;;;;;;;;;;;;;21.14;24.41;95867.16;10352150;28;1833;-55
2022/02/07 09:55:41;;;;;;;;;;;;;;;21.11;24.34;95884.28;10351759;28;2111;-57
2022/02/07 10:00:42;;;;;;;;;;;;;;;21.10;24.27;95889.84;10352552;28;2544;-54
2022/02/07 10:05:53;;;;;;;;;;;;;;;21.10;24.55;95900.38;10354372;28;1917;-55
2022/02/07 10:11:23;;;;;;;;;;;;;;;21.09;24.29;95899.59;10333987;28;1860;-54
2022/02/07 10:43:08;;;;;;;;;;;;;;;21.11;24.24;95954.66;10349142;28;2165;-54
2022/02/07 10:48:11;;;;;;;;;;;;;;;21.08;24.45;95957.84;10329615;28;1926;-59
2022/02/07 10:53:12;;;;;;;;;;;;;;;21.09;24.35;95968.13;10349102;28;1981;-60
2022/02/07 10:58:13;;;;;;;;;;;;;;;21.10;24.45;95979.47;10352871;28;1914;-58
2022/02/07 11:03:20;;;;;;;;;;;;;;;21.14;24.32;95977.84;10332796;28;1841;-56
2022/02/07 11:13:49;;;;;;;;;;;;;;;21.17;24.40;95995.75;10339412;28;1972;-57
2022/02/07 11:24:12;;;;;;;;;;;;;;;21.12;24.12;96008.97;10370417;28;2323;-58
2022/02/07 11:29:32;;;;;;;;;;;;;;;21.10;24.07;96011.09;10356411;28;1762;-57
2022/02/07 11:34:43;;;;;;;;;;;;;;;21.11;24.15;96023.19;10355634;28;2097;-57
2022/02/07 11:39:45;;;;;;;;;;;;;;;21.12;24.21;96035.34;10351832;28;1993;-56
2022/02/07 11:44:46;;;;;;;;;;;;;;;21.10;24.27;96038.25;10318851;28;1878;-56
2022/02/07 11:49:48;;;;;;;;;;;;;;;21.08;23.99;96035.09;10335483;28;1930;-57
2022/02/07 11:55:00;;;;;;;;;;;;;;;21.07;24.10;96054.59;10349788;28;1907;-55
2022/02/07 12:00:00;;;;;;;;;;;;;;;21.06;24.19;96069.59;10336489;28;1979;-52
2022/02/07 12:05:07;;;;;;;;;;;;;;;21.06;24.22;96064.34;10349160;28;1870;-52
2022/02/07 12:15:15;;;;;;;;;;;;;;;21.08;23.96;96081.75;10312239;28;2300;-55
2022/02/07 12:20:19;;;;;;;;;;;;;;;21.07;24.22;96075.66;10346753;28;1946;-52
2022/02/07 12:25:36;;;;;;;;;;;;;;;21.05;23.81;96089.13;10299602;28;2387;-53
2022/02/07 12:31:00;;;;;;;;;;;;;;;21.08;24.07;96102.81;10304860;28;1949;-53
2022/02/07 12:36:00;;;;;;;;;;;;;;;21.06;24.01;96089.94;10305397;28;1963;-54
2022/02/07 12:41:03;;;;;;;;;;;;;;;21.06;24.02;96116.28;10311388;28;2193;-53
2022/02/07 12:46:04;;;;;;;;;;;;;;;21.05;23.87;96120.75;10312629;28;1832;-53
2022/02/07 12:51:04;;;;;;;;;;;;;;;21.05;24.19;96120.75;10306410;28;1873;-52
2022/02/07 12:56:05;;;;;;;;;;;;;;;21.05;24.10;96136.56;10344074;28;1848;-52
2022/02/07 13:01:24;;;;;;;;;;;;;;;21.04;24.05;96124.44;10308477;28;1980;-53
2022/02/07 13:06:29;;;;;;;;;;;;;;;21.09;24.50;96150.00;10316234;28;2074;-56
2022/02/07 13:11:33;;;;;;;;;;;;;;;21.08;24.45;96154.47;10308873;28;1943;-55
2022/02/07 13:16:34;;;;;;;;;;;;;;;21.09;24.00;96157.91;10315739;28;1984;-55
2022/02/07 13:21:39;;;;;;;;;;;;;;;21.06;24.14;96164.50;10323932;28;2609;-57
2022/02/07 13:26:42;;;;;;;;;;;;;;;21.05;23.94;96175.31;10315612;28;1813;-54
2022/02/07 13:31:43;;;;;;;;;;;;;;;21.06;24.33;96172.41;10321808;28;1843;-52
2022/02/07 13:36:48;;;;;;;;;;;;;;;21.10;24.57;96179.78;10305156;28;2240;-53
2022/02/07 13:42:02;;;;;;;;;;;;;;;21.10;24.14;96190.34;10304157;28;1976;-53
2022/02/07 13:47:03;;;;;;;;;;;;;;;21.07;24.23;96202.19;10319327;28;1983;-56
2022/02/07 13:52:04;;;;;;;;;;;;;;;21.08;24.23;96203.00;10324562;28;1884;-56
2022/02/07 13:57:05;;;;;;;;;;;;;;;21.08;24.36;96199.28;10322082;28;2003;-56
2022/02/07 14:02:24;;;;;;;;;;;;;;;21.09;24.20;96200.09;10318283;28;1824;-56
2022/02/07 14:07:25;;;;;;;;;;;;;;;21.10;24.07;96214.06;10327104;28;1910;-56
2022/02/07 14:12:25;;;;;;;;;;;;;;;21.11;24.34;96226.16;10306651;28;2259;-55
2022/02/07 14:17:25;;;;;;;;;;;;;;;21.14;24.37;96217.75;10332343;28;1992;-57
2022/02/07 14:22:34;;;;;;;;;;;;;;;21.14;24.30;96236.19;10313978;28;2178;-54
2022/02/07 14:27:35;;;;;;;;;;;;;;;21.12;24.03;96254.91;10316874;28;1846;-54
2022/02/07 14:32:35;;;;;;;;;;;;;;;21.11;24.01;96244.63;10321018;28;2203;-54
2022/02/07 14:37:36;;;;;;;;;;;;;;;21.11;24.07;96240.16;10330713;28;1981;-54
2022/02/07 14:42:37;;;;;;;;;;;;;;;21.12;24.22;96248.84;10314788;28;2144;-54
2022/02/07 14:48:03;;;;;;;;;;;;;;;21.11;24.09;96261.22;10324789;28;2135;-55
2022/02/07 14:52:58;;;;;;;;;;;;;;;21.12;24.17;96262.03;10311110;28;1948;-52
2022/02/07 14:57:59;;;;;;;;;;;;;;;21.13;24.21;96279.41;10320614;28;1895;-55
2022/02/07 15:03:00;;;;;;;;;;;;;;;21.13;23.93;96284.69;10318053;28;1824;-55
2022/02/07 15:08:00;;;;;;;;;;;;;;;21.13;23.89;96292.59;10325763;28;1923;-55
2022/02/07 15:13:00;;;;;;;;;;;;;;;21.12;24.12;96285.75;10312420;28;1837;-53
2022/02/07 15:18:05;;;;;;;;;;;;;;;21.08;23.95;96308.44;10329859;28;1998;-54
2022/02/07 15:23:09;;;;;;;;;;;;;;;21.10;23.97;96311.59;10333104;28;2373;-57
2022/02/07 15:28:11;;;;;;;;;;;;;;;21.10;23.83;96337.94;10314845;28;2068;-54
2022/02/07 15:33:18;;;;;;;;;;;;;;;21.16;24.87;96331.63;10320959;28;1940;-54
2022/02/07 15:38:23;;;;;;;;;;;;;;;21.18;24.03;96335.59;10291437;28;2053;-54
2022/02/07 15:43:23;;;;;;;;;;;;;;;21.17;24.12;96343.75;10317223;28;1849;-53
2022/02/07 15:48:24;;;;;;;;;;;;;;;21.15;24.56;96354.56;10303718;28;1847;-54
2022/02/07 15:53:24;;;;;;;;;;;;;;;21.13;23.92;96369.84;10302331;28;1998;-57
2022/02/07 15:58:24;;;;;;;;;;;;;;;21.12;24.05;96378.03;10315150;28;1977;-51
2022/02/07 16:03:25;;;;;;;;;;;;;;;21.12;23.93;96383.28;10300990;28;2254;-54
2022/02/07 16:08:25;;;;;;;;;;;;;;;21.11;23.74;96385.13;10300162;28;1856;-53
2022/02/07 16:13:32;;;;;;;;;;;;;;;21.12;24.20;96396.47;10315967;28;2171;-53
2022/02/07 16:18:33;;;;;;;;;;;;;;;21.11;23.87;96405.41;10311521;28;1914;-52
2022/02/07 16:23:34;;;;;;;;;;;;;;;21.10;23.96;96407.28;10314132;28;1911;-52
2022/02/07 16:28:34;;;;;;;;;;;;;;;21.10;23.81;96428.38;10312339;28;1974;-53
2022/02/07 16:33:35;;;;;;;;;;;;;;;21.12;23.84;96444.72;10315861;28;1791;-54
2022/02/07 16:38:35;;;;;;;;;;;;;;;21.13;24.13;96445.50;10309402;28;1988;-55
2022/02/07 16:43:38;;;;;;;;;;;;;;;21.11;24.12;96463.41;10308827;28;2000;-53
2022/02/07 16:48:39;;;;;;;;;;;;;;;21.10;24.11;96472.41;10315762;28;1831;-53
2022/02/07 16:53:39;;;;;;;;;;;;;;;21.13;24.22;96490.31;10314821;28;1566;-53
2022/02/07 16:58:40;;;;;;;;;;;;;;;21.13;24.10;96504.28;10310803;28;1914;-52
2022/02/07 17:03:40;;;;;;;;;;;;;;;21.16;23.48;96505.63;10305941;28;1950;-56
2022/02/07 17:08:40;;;;;;;;;;;;;;;21.13;24.07;96506.13;10318576;28;2055;-56
2022/02/07 17:13:41;;;;;;;;;;;;;;;21.16;24.11;96521.44;10330570;28;1792;-54
2022/02/07 17:18:41;;;;;;;;;;;;;;;21.11;23.85;96514.31;10323846;28;1914;-54
2022/02/07 17:23:41;;;;;;;;;;;;;;;21.11;23.81;96522.22;10326691;28;1883;-53
2022/02/07 17:28:43;;;;;;;;;;;;;;;21.14;24.01;96523.56;10325816;28;1852;-55
2022/02/07 17:33:43;;;;;;;;;;;;;;;21.12;24.09;96531.72;10321586;28;1813;-53
2022/02/07 17:38:45;;;;;;;;;;;;;;;21.11;23.89;96537.22;10321392;28;2038;-55
2022/02/07 17:43:53;;;;;;;;;;;;;;;21.09;23.60;96550.69;10319426;28;1934;-52
2022/02/07 17:49:01;;;;;;;;;;;;;;;21.12;23.86;96547.53;10318729;28;1895;-53
2022/02/07 17:54:03;;;;;;;;;;;;;;;21.15;24.07;96546.22;10325736;28;1859;-51
2022/02/07 17:59:06;;;;;;;;;;;;;;;21.16;23.79;96558.34;10326310;28;1915;-55
2022/02/07 18:04:06;;;;;;;;;;;;;;;21.16;24.06;96563.63;10317893;28;1875;-55
2022/02/07 18:09:06;;;;;;;;;;;;;;;21.16;23.92;96569.72;10306874;28;1920;-55
2022/02/07 18:14:07;;;;;;;;;;;;;;;21.17;23.97;96570.47;10311945;28;1885;-55
2022/02/07 18:19:14;;;;;;;;;;;;;;;21.18;23.64;96580.00;10294734;28;2005;-51
2022/02/07 18:24:14;;;;;;;;;;;;;;;21.22;23.97;96596.88;10316536;28;2037;-53
2022/02/07 18:29:14;;;;;;;;;;;;;;;21.18;23.59;96591.34;10293535;28;2214;-54
2022/02/07 18:34:25;;;;;;;;;;;;;;;21.18;23.85;96599.25;10326242;28;1870;-55
2022/02/07 18:39:27;;;;;;;;;;;;;;;21.19;23.79;96610.56;10322277;28;1918;-53
2022/02/07 18:44:28;;;;;;;;;;;;;;;21.30;24.16;96607.72;10319198;28;1778;-51
2022/02/07 18:49:29;;;;;;;;;;;;;;;21.29;24.05;96615.91;10289010;28;1886;-54
2022/02/07 18:54:29;;;;;;;;;;;;;;;21.25;23.69;96625.34;10301135;28;1522;-54
2022/02/07 18:59:34;;;;;;;;;;;;;;;21.25;24.01;96631.44;10319713;28;1911;-53
2022/02/07 19:04:56;;;;;;;;;;;;;;;21.27;23.87;96645.16;10320803;28;1426;-54
2022/02/07 19:09:56;;;;;;;;;;;;;;;21.25;23.95;96652.53;10322497;28;1442;-53
2022/02/07 19:14:56;;;;;;;;;;;;;;;21.26;23.92;96655.97;10340480;28;1487;-55
2022/02/07 19:20:01;;;;;;;;;;;;;;;21.24;23.88;96669.41;10332053;28;1910;-55
2022/02/07 19:25:10;;;;;;;;;;;;;;;21.24;23.90;96672.03;10315802;28;1577;-55
2022/02/07 19:30:13;;;;;;;;;;;;;;;21.23;24.16;96672.28;10316639;28;1792;-54
2022/02/07 19:35:25;;;;;;;;;;;;;;;21.23;24.12;96682.81;10333986;28;2180;-56
2022/02/07 19:40:28;;;;;;;;;;;;;;;21.23;24.11;96691.53;10313875;28;1907;-55
2022/02/07 19:45:32;;;;;;;;;;;;;;;21.24;24.04;96689.69;10321513;28;2222;-55
2022/02/07 19:50:33;;;;;;;;;;;;;;;21.22;24.00;96704.97;10320151;28;1514;-57
2022/02/07 19:55:35;;;;;;;;;;;;;;;21.24;24.15;96713.44;10317447;28;1817;-57
2022/02/07 20:00:37;;;;;;;;;;;;;;;21.22;23.72;96703.16;10317353;28;1902;-57
2022/02/07 20:05:39;;;;;;;;;;;;;;;21.21;23.97;96709.47;10300097;28;1565;-54
2022/02/07 20:10:41;;;;;;;;;;;;;;;21.22;23.78;96726.06;10358117;28;1476;-55
2022/02/07 20:15:42;;;;;;;;;;;;;;;21.25;23.92;96730.81;10358632;28;1293;-53
2022/02/07 20:20:43;;;;;;;;;;;;;;;21.21;23.90;96733.19;10356297;28;1914;-52
2022/02/07 20:25:44;;;;;;;;;;;;;;;21.24;24.03;96739.81;10333897;28;1519;-53
2022/02/07 20:30:44;;;;;;;;;;;;;;;21.23;23.79;96739.00;10359142;28;1417;-55
2022/02/07 20:35:45;;;;;;;;;;;;;;;21.26;24.01;96749.06;10338524;28;2023;-58
2022/02/07 20:40:45;;;;;;;;;;;;;;;21.24;23.64;96751.16;10349368;28;2018;-56
2022/02/07 20:45:50;;;;;;;;;;;;;;;21.24;23.70;96755.63;10355972;28;1430;-52
2022/02/07 20:50:51;;;;;;;;;;;;;;;21.24;24.01;96763.53;10371273;28;1618;-57
2022/02/07 20:55:52;;;;;;;;;;;;;;;21.22;23.86;96774.34;10370762;28;1458;-56
2022/02/07 21:00:53;;;;;;;;;;;;;;;21.23;23.95;96778.56;10331968;28;1918;-55
2022/02/07 21:05:55;;;;;;;;;;;;;;;21.20;23.82;96781.72;10355894;28;1838;-57
2022/02/07 21:10:56;;;;;;;;;;;;;;;21.24;24.10;96793.34;10334073;28;1922;-55
2022/02/07 21:15:59;;;;;;;;;;;;;;;21.22;23.78;96789.38;10337385;28;1848;-56
2022/02/07 21:20:59;;;;;;;;;;;;;;;21.20;23.87;96799.38;10370342;28;2302;-58
2022/02/07 21:26:00;;;;;;;;;;;;;;;21.16;23.67;96800.91;10357135;28;1824;-52
2022/02/07 21:31:01;;;;;;;;;;;;;;;21.17;24.05;96805.94;10354971;28;1823;-56
2022/02/07 21:36:01;;;;;;;;;;;;;;;21.16;23.66;96811.47;10357495;28;1856;-53
2022/02/07 21:41:02;;;;;;;;;;;;;;;21.13;24.00;96810.13;10351789;28;1969;-56
2022/02/07 21:46:15;;;;;;;;;;;;;;;21.13;23.96;96802.22;10355452;28;1887;-56
2022/02/07 21:51:16;;;;;;;;;;;;;;;21.13;24.71;96818.03;10333227;28;1813;-56
2022/02/07 21:56:16;;;;;;;;;;;;;;;21.13;24.13;96819.88;10370231;28;1892;-56
2022/02/07 22:01:16;;;;;;;;;;;;;;;21.15;24.12;96823.03;10335923;28;1906;-54
2022/02/07 22:06:17;;;;;;;;;;;;;;;21.13;24.38;96828.56;10333012;28;1826;-54
2022/02/07 22:11:32;;;;;;;;;;;;;;;21.13;24.13;96836.47;10328582;28;1828;-52
2022/02/07 22:16:36;;;;;;;;;;;;;;;21.12;23.91;96842.00;10325480;28;1816;-52
2022/02/07 22:21:36;;;;;;;;;;;;;;;21.12;24.69;96848.09;10327974;28;1965;-55
2022/02/07 22:26:37;;;;;;;;;;;;;;;21.13;24.07;96862.84;10328806;28;1909;-54
2022/02/07 22:31:47;;;;;;;;;;;;;;;21.12;24.50;96863.09;10369763;28;1801;-53
2022/02/07 22:36:48;;;;;;;;;;;;;;;21.13;24.23;96864.69;10335435;28;1839;-51
2022/02/07 22:41:48;;;;;;;;;;;;;;;21.11;23.75;96887.88;10368393;28;1943;-56
2022/02/07 22:46:49;;;;;;;;;;;;;;;21.14;24.30;96879.47;10335772;28;1834;-54
2022/02/07 22:51:50;;;;;;;;;;;;;;;21.13;23.99;96880.50;10337836;28;1741;-56
2022/02/07 22:56:51;;;;;;;;;;;;;;;21.12;24.40;96878.94;10328362;28;1869;-54
2022/02/07 23:01:51;;;;;;;;;;;;;;;21.10;24.29;96886.28;10366518;22;2106;-44
2022/02/07 23:06:52;;;;;;;;;;;;;;;21.12;24.56;96890.28;10472067;28;1875;-43
2022/02/07 23:12:03;;;;;;;;;;;;;;;21.08;23.92;96893.66;10478626;28;2107;-44
2022/02/07 23:30:43;;;;;;;;;;;;;;;21.08;24.35;96898.94;10477857;28;2003;-46
2022/02/07 23:38:38;;;;;;;;;;;;;;;21.05;23.79;96908.94;10473554;28;1939;-43
2022/02/07 23:43:33;;;;;;;;;;;;;;;21.04;24.06;96912.59;10476360;28;1793;-45
2022/02/07 23:48:42;;;;;;;;;;;;;;;21.04;23.84;96915.22;10468072;28;1888;-45
